sensor_id;sensor_type;location;lat;lon;timestamp;P1;durP1;ratioP1;P2;durP2;ratioP2
75818;SDS011;64453;51.944;9.796;2023-09-08T00:00:34;9.23;;;5.13;;
75818;SDS011;64453;51.944;9.796;2023-09-08T00:03:01;5.80;;;5.20;;
75818;SDS011;64453;51.944;9.796;2023-09-08T00:05:28;6.43;;;5.93;;
75818;SDS011;64453;51.944;9.796;2023-09-08T00:07:55;5.97;;;5.47;;
75818;SDS011;64453;51.944;9.796;2023-09-08T00:10:22;6.70;;;5.00;;
75818;SDS011;64453;51.944;9.796;2023-09-08T00:12:51;7.70;;;6.00;;
75818;SDS011;64453;51.944;9.796;2023-09-08T00:15:18;6.23;;;5.13;;
75818;SDS011;64453;51.944;9.796;2023-09-08T00:17:45;5.70;;;5.20;;
75818;SDS011;64453;51.944;9.796;2023-09-08T00:20:12;5.60;;;5.10;;
75818;SDS011;64453;51.944;9.796;2023-09-08T00:22:40;8.93;;;6.07;;
75818;SDS011;64453;51.944;9.796;2023-09-08T00:25:07;5.70;;;5.30;;
75818;SDS011;64453;51.944;9.796;2023-09-08T00:27:34;7.10;;;5.37;;
75818;SDS011;64453;51.944;9.796;2023-09-08T00:30:02;7.70;;;4.77;;
75818;SDS011;64453;51.944;9.796;2023-09-08T00:32:30;6.00;;;5.40;;
75818;SDS011;64453;51.944;9.796;2023-09-08T00:34:57;5.93;;;5.40;;
75818;SDS011;64453;51.944;9.796;2023-09-08T00:37:24;5.20;;;4.80;;
75818;SDS011;64453;51.944;9.796;2023-09-08T00:39:51;7.40;;;5.87;;
75818;SDS011;64453;51.944;9.796;2023-09-08T00:42:18;5.80;;;5.30;;
75818;SDS011;64453;51.944;9.796;2023-09-08T00:44:45;5.50;;;5.00;;
75818;SDS011;64453;51.944;9.796;2023-09-08T00:47:13;5.50;;;5.10;;
75818;SDS011;64453;51.944;9.796;2023-09-08T00:49:40;5.93;;;5.30;;
75818;SDS011;64453;51.944;9.796;2023-09-08T00:52:07;5.60;;;5.17;;
75818;SDS011;64453;51.944;9.796;2023-09-08T00:54:34;5.30;;;4.80;;
75818;SDS011;64453;51.944;9.796;2023-09-08T00:57:01;5.77;;;5.07;;
75818;SDS011;64453;51.944;9.796;2023-09-08T00:59:29;5.20;;;4.80;;
75818;SDS011;64453;51.944;9.796;2023-09-08T01:01:58;5.87;;;5.37;;
75818;SDS011;64453;51.944;9.796;2023-09-08T01:04:26;6.13;;;4.70;;
75818;SDS011;64453;51.944;9.796;2023-09-08T01:06:54;6.00;;;4.97;;
75818;SDS011;64453;51.944;9.796;2023-09-08T01:09:23;6.20;;;5.70;;
75818;SDS011;64453;51.944;9.796;2023-09-08T01:11:51;5.20;;;4.80;;
75818;SDS011;64453;51.944;9.796;2023-09-08T01:14:20;5.20;;;4.70;;
75818;SDS011;64453;51.944;9.796;2023-09-08T01:16:47;5.13;;;4.57;;
75818;SDS011;64453;51.944;9.796;2023-09-08T01:19:14;8.00;;;4.77;;
75818;SDS011;64453;51.944;9.796;2023-09-08T01:21:57;5.43;;;4.93;;
75818;SDS011;64453;51.944;9.796;2023-09-08T01:27:35;8.03;;;5.20;;
75818;SDS011;64453;51.944;9.796;2023-09-08T01:30:04;5.23;;;4.73;;
75818;SDS011;64453;51.944;9.796;2023-09-08T01:32:33;6.10;;;5.50;;
75818;SDS011;64453;51.944;9.796;2023-09-08T01:35:01;5.17;;;4.70;;
75818;SDS011;64453;51.944;9.796;2023-09-08T01:37:28;8.27;;;5.53;;
75818;SDS011;64453;51.944;9.796;2023-09-08T01:39:55;5.80;;;5.30;;
75818;SDS011;64453;51.944;9.796;2023-09-08T01:42:24;4.70;;;4.27;;
75818;SDS011;64453;51.944;9.796;2023-09-08T01:44:50;5.87;;;5.23;;
75818;SDS011;64453;51.944;9.796;2023-09-08T01:47:18;5.13;;;4.77;;
75818;SDS011;64453;51.944;9.796;2023-09-08T01:49:45;7.10;;;5.33;;
75818;SDS011;64453;51.944;9.796;2023-09-08T01:52:11;5.70;;;5.30;;
75818;SDS011;64453;51.944;9.796;2023-09-08T01:54:38;5.10;;;4.70;;
75818;SDS011;64453;51.944;9.796;2023-09-08T01:57:06;5.47;;;5.07;;
75818;SDS011;64453;51.944;9.796;2023-09-08T01:59:34;4.87;;;4.40;;
75818;SDS011;64453;51.944;9.796;2023-09-08T02:02:02;6.20;;;5.10;;
75818;SDS011;64453;51.944;9.796;2023-09-08T02:04:29;6.77;;;5.50;;
75818;SDS011;64453;51.944;9.796;2023-09-08T02:06:56;5.50;;;5.07;;
75818;SDS011;64453;51.944;9.796;2023-09-08T02:09:29;5.00;;;4.50;;
75818;SDS011;64453;51.944;9.796;2023-09-08T02:11:57;6.33;;;5.53;;
75818;SDS011;64453;51.944;9.796;2023-09-08T02:14:24;6.20;;;5.70;;
75818;SDS011;64453;51.944;9.796;2023-09-08T02:16:54;6.07;;;5.20;;
75818;SDS011;64453;51.944;9.796;2023-09-08T02:19:21;5.90;;;5.27;;
75818;SDS011;64453;51.944;9.796;2023-09-08T02:21:48;5.67;;;5.17;;
75818;SDS011;64453;51.944;9.796;2023-09-08T02:24:15;5.27;;;4.87;;
75818;SDS011;64453;51.944;9.796;2023-09-08T02:26:42;6.00;;;5.50;;
75818;SDS011;64453;51.944;9.796;2023-09-08T02:29:09;5.87;;;5.37;;
75818;SDS011;64453;51.944;9.796;2023-09-08T02:31:36;5.67;;;5.13;;
75818;SDS011;64453;51.944;9.796;2023-09-08T02:34:04;6.60;;;5.27;;
75818;SDS011;64453;51.944;9.796;2023-09-08T02:36:31;5.83;;;5.33;;
75818;SDS011;64453;51.944;9.796;2023-09-08T02:39:05;6.53;;;5.93;;
75818;SDS011;64453;51.944;9.796;2023-09-08T02:41:32;6.83;;;6.07;;
75818;SDS011;64453;51.944;9.796;2023-09-08T02:43:59;5.80;;;5.37;;
75818;SDS011;64453;51.944;9.796;2023-09-08T02:46:26;6.50;;;6.00;;
75818;SDS011;64453;51.944;9.796;2023-09-08T02:48:53;5.30;;;4.90;;
75818;SDS011;64453;51.944;9.796;2023-09-08T02:51:21;6.87;;;5.50;;
75818;SDS011;64453;51.944;9.796;2023-09-08T02:53:48;5.90;;;4.90;;
75818;SDS011;64453;51.944;9.796;2023-09-08T02:56:15;5.40;;;5.00;;
75818;SDS011;64453;51.944;9.796;2023-09-08T02:58:42;5.40;;;4.87;;
75818;SDS011;64453;51.944;9.796;2023-09-08T03:01:10;5.43;;;4.73;;
75818;SDS011;64453;51.944;9.796;2023-09-08T03:03:39;6.83;;;5.10;;
75818;SDS011;64453;51.944;9.796;2023-09-08T03:06:07;6.20;;;5.47;;
75818;SDS011;64453;51.944;9.796;2023-09-08T03:08:36;5.57;;;5.07;;
75818;SDS011;64453;51.944;9.796;2023-09-08T03:11:07;6.67;;;6.07;;
75818;SDS011;64453;51.944;9.796;2023-09-08T03:13:34;5.70;;;5.20;;
75818;SDS011;64453;51.944;9.796;2023-09-08T03:16:02;5.33;;;4.93;;
75818;SDS011;64453;51.944;9.796;2023-09-08T03:18:30;6.50;;;5.87;;
75818;SDS011;64453;51.944;9.796;2023-09-08T03:20:58;7.27;;;5.00;;
75818;SDS011;64453;51.944;9.796;2023-09-08T03:23:26;5.53;;;5.13;;
75818;SDS011;64453;51.944;9.796;2023-09-08T03:25:55;6.00;;;5.43;;
75818;SDS011;64453;51.944;9.796;2023-09-08T03:28:22;5.40;;;5.00;;
75818;SDS011;64453;51.944;9.796;2023-09-08T03:30:53;5.90;;;5.30;;
75818;SDS011;64453;51.944;9.796;2023-09-08T03:33:20;6.23;;;5.27;;
75818;SDS011;64453;51.944;9.796;2023-09-08T03:35:48;6.10;;;5.53;;
75818;SDS011;64453;51.944;9.796;2023-09-08T03:38:15;7.60;;;5.80;;
75818;SDS011;64453;51.944;9.796;2023-09-08T03:40:43;5.77;;;5.27;;
75818;SDS011;64453;51.944;9.796;2023-09-08T03:43:14;7.80;;;6.10;;
75818;SDS011;64453;51.944;9.796;2023-09-08T03:45:43;6.20;;;5.70;;
75818;SDS011;64453;51.944;9.796;2023-09-08T03:48:10;6.17;;;5.63;;
75818;SDS011;64453;51.944;9.796;2023-09-08T03:50:37;7.00;;;5.57;;
75818;SDS011;64453;51.944;9.796;2023-09-08T03:53:05;6.23;;;5.73;;
75818;SDS011;64453;51.944;9.796;2023-09-08T03:55:32;5.60;;;5.20;;
75818;SDS011;64453;51.944;9.796;2023-09-08T03:57:59;6.33;;;5.70;;
75818;SDS011;64453;51.944;9.796;2023-09-08T04:00:27;7.17;;;5.87;;
75818;SDS011;64453;51.944;9.796;2023-09-08T04:02:54;9.03;;;5.60;;
75818;SDS011;64453;51.944;9.796;2023-09-08T04:05:22;6.73;;;5.90;;
75818;SDS011;64453;51.944;9.796;2023-09-08T04:07:49;6.27;;;5.67;;
75818;SDS011;64453;51.944;9.796;2023-09-08T04:10:15;5.73;;;5.30;;
75818;SDS011;64453;51.944;9.796;2023-09-08T04:12:43;6.13;;;5.63;;
75818;SDS011;64453;51.944;9.796;2023-09-08T04:15:10;6.13;;;5.53;;
75818;SDS011;64453;51.944;9.796;2023-09-08T04:17:38;5.70;;;5.20;;
75818;SDS011;64453;51.944;9.796;2023-09-08T04:20:06;6.33;;;5.80;;
75818;SDS011;64453;51.944;9.796;2023-09-08T04:22:34;5.90;;;5.43;;
75818;SDS011;64453;51.944;9.796;2023-09-08T04:25:01;6.30;;;5.73;;
75818;SDS011;64453;51.944;9.796;2023-09-08T04:27:30;6.37;;;5.77;;
75818;SDS011;64453;51.944;9.796;2023-09-08T04:29:58;6.03;;;5.47;;
75818;SDS011;64453;51.944;9.796;2023-09-08T04:32:25;6.13;;;5.53;;
75818;SDS011;64453;51.944;9.796;2023-09-08T04:34:53;10.43;;;6.10;;
75818;SDS011;64453;51.944;9.796;2023-09-08T04:37:20;7.03;;;5.63;;
75818;SDS011;64453;51.944;9.796;2023-09-08T04:39:48;6.83;;;5.43;;
75818;SDS011;64453;51.944;9.796;2023-09-08T04:42:18;6.17;;;5.57;;
75818;SDS011;64453;51.944;9.796;2023-09-08T04:44:45;5.67;;;5.27;;
75818;SDS011;64453;51.944;9.796;2023-09-08T04:47:12;5.93;;;5.40;;
75818;SDS011;64453;51.944;9.796;2023-09-08T04:49:39;6.87;;;6.23;;
75818;SDS011;64453;51.944;9.796;2023-09-08T04:52:07;6.07;;;5.47;;
75818;SDS011;64453;51.944;9.796;2023-09-08T04:54:36;5.70;;;5.30;;
75818;SDS011;64453;51.944;9.796;2023-09-08T04:57:03;8.07;;;5.93;;
75818;SDS011;64453;51.944;9.796;2023-09-08T04:59:30;6.00;;;5.50;;
75818;SDS011;64453;51.944;9.796;2023-09-08T05:01:57;6.17;;;5.63;;
75818;SDS011;64453;51.944;9.796;2023-09-08T05:04:24;6.70;;;6.10;;
75818;SDS011;64453;51.944;9.796;2023-09-08T05:06:51;5.30;;;4.90;;
75818;SDS011;64453;51.944;9.796;2023-09-08T05:09:20;6.70;;;6.00;;
75818;SDS011;64453;51.944;9.796;2023-09-08T05:11:46;6.80;;;6.10;;
75818;SDS011;64453;51.944;9.796;2023-09-08T05:14:13;8.70;;;6.60;;
75818;SDS011;64453;51.944;9.796;2023-09-08T05:16:40;6.20;;;5.70;;
75818;SDS011;64453;51.944;9.796;2023-09-08T05:19:11;9.00;;;6.80;;
75818;SDS011;64453;51.944;9.796;2023-09-08T05:21:39;6.40;;;5.80;;
75818;SDS011;64453;51.944;9.796;2023-09-08T05:24:06;8.93;;;6.70;;
75818;SDS011;64453;51.944;9.796;2023-09-08T05:26:36;7.30;;;6.00;;
75818;SDS011;64453;51.944;9.796;2023-09-08T05:29:04;5.40;;;4.90;;
75818;SDS011;64453;51.944;9.796;2023-09-08T05:31:31;5.97;;;5.40;;
75818;SDS011;64453;51.944;9.796;2023-09-08T05:33:58;7.10;;;6.50;;
75818;SDS011;64453;51.944;9.796;2023-09-08T05:36:25;6.77;;;6.07;;
75818;SDS011;64453;51.944;9.796;2023-09-08T05:38:52;8.70;;;5.50;;
75818;SDS011;64453;51.944;9.796;2023-09-08T05:41:19;6.70;;;6.10;;
75818;SDS011;64453;51.944;9.796;2023-09-08T05:43:47;9.47;;;6.40;;
75818;SDS011;64453;51.944;9.796;2023-09-08T05:46:14;8.67;;;6.57;;
75818;SDS011;64453;51.944;9.796;2023-09-08T05:48:41;9.83;;;6.50;;
75818;SDS011;64453;51.944;9.796;2023-09-08T05:51:08;6.30;;;5.80;;
75818;SDS011;64453;51.944;9.796;2023-09-08T05:53:35;6.57;;;5.90;;
75818;SDS011;64453;51.944;9.796;2023-09-08T05:56:04;7.80;;;7.20;;
75818;SDS011;64453;51.944;9.796;2023-09-08T05:58:31;6.30;;;5.87;;
75818;SDS011;64453;51.944;9.796;2023-09-08T06:01:00;6.93;;;6.33;;
75818;SDS011;64453;51.944;9.796;2023-09-08T06:03:27;7.73;;;6.97;;
75818;SDS011;64453;51.944;9.796;2023-09-08T06:05:54;7.93;;;6.50;;
75818;SDS011;64453;51.944;9.796;2023-09-08T06:08:22;7.50;;;6.80;;
75818;SDS011;64453;51.944;9.796;2023-09-08T06:10:48;7.37;;;6.77;;
75818;SDS011;64453;51.944;9.796;2023-09-08T06:13:15;8.97;;;7.97;;
75818;SDS011;64453;51.944;9.796;2023-09-08T06:15:42;7.50;;;6.90;;
75818;SDS011;64453;51.944;9.796;2023-09-08T06:18:10;8.17;;;7.43;;
75818;SDS011;64453;51.944;9.796;2023-09-08T06:20:43;8.23;;;7.00;;
75818;SDS011;64453;51.944;9.796;2023-09-08T06:23:11;9.83;;;8.83;;
75818;SDS011;64453;51.944;9.796;2023-09-08T06:25:39;8.00;;;7.30;;
75818;SDS011;64453;51.944;9.796;2023-09-08T06:28:06;9.43;;;8.07;;
75818;SDS011;64453;51.944;9.796;2023-09-08T06:30:33;8.13;;;7.37;;
75818;SDS011;64453;51.944;9.796;2023-09-08T06:33:00;8.60;;;7.80;;
75818;SDS011;64453;51.944;9.796;2023-09-08T06:35:29;8.60;;;7.77;;
75818;SDS011;64453;51.944;9.796;2023-09-08T06:37:56;10.00;;;7.73;;
75818;SDS011;64453;51.944;9.796;2023-09-08T06:40:23;8.03;;;7.33;;
75818;SDS011;64453;51.944;9.796;2023-09-08T06:42:50;8.77;;;8.07;;
75818;SDS011;64453;51.944;9.796;2023-09-08T06:45:18;8.43;;;7.40;;
75818;SDS011;64453;51.944;9.796;2023-09-08T06:47:45;9.40;;;8.20;;
75818;SDS011;64453;51.944;9.796;2023-09-08T06:50:11;8.43;;;7.63;;
75818;SDS011;64453;51.944;9.796;2023-09-08T06:52:40;12.20;;;8.27;;
75818;SDS011;64453;51.944;9.796;2023-09-08T06:55:07;8.07;;;7.23;;
75818;SDS011;64453;51.944;9.796;2023-09-08T06:57:34;9.53;;;8.13;;
75818;SDS011;64453;51.944;9.796;2023-09-08T07:00:02;9.07;;;8.17;;
75818;SDS011;64453;51.944;9.796;2023-09-08T07:02:32;8.80;;;8.10;;
75818;SDS011;64453;51.944;9.796;2023-09-08T07:04:59;9.07;;;8.27;;
75818;SDS011;64453;51.944;9.796;2023-09-08T07:07:31;8.90;;;8.10;;
75818;SDS011;64453;51.944;9.796;2023-09-08T07:10:00;10.00;;;8.23;;
75818;SDS011;64453;51.944;9.796;2023-09-08T07:12:28;8.13;;;7.43;;
75818;SDS011;64453;51.944;9.796;2023-09-08T07:14:55;9.03;;;8.17;;
75818;SDS011;64453;51.944;9.796;2023-09-08T07:17:25;8.00;;;7.30;;
75818;SDS011;64453;51.944;9.796;2023-09-08T07:19:53;8.13;;;7.27;;
75818;SDS011;64453;51.944;9.796;2023-09-08T07:22:19;7.90;;;7.20;;
75818;SDS011;64453;51.944;9.796;2023-09-08T07:24:46;8.13;;;7.30;;
75818;SDS011;64453;51.944;9.796;2023-09-08T07:27:14;7.90;;;7.20;;
75818;SDS011;64453;51.944;9.796;2023-09-08T07:29:43;8.67;;;6.53;;
75818;SDS011;64453;51.944;9.796;2023-09-08T07:32:10;7.03;;;6.40;;
75818;SDS011;64453;51.944;9.796;2023-09-08T07:34:37;7.23;;;6.63;;
75818;SDS011;64453;51.944;9.796;2023-09-08T07:37:04;7.80;;;7.10;;
75818;SDS011;64453;51.944;9.796;2023-09-08T07:39:31;7.37;;;6.60;;
75818;SDS011;64453;51.944;9.796;2023-09-08T07:41:57;10.30;;;6.80;;
75818;SDS011;64453;51.944;9.796;2023-09-08T07:44:26;7.37;;;6.77;;
75818;SDS011;64453;51.944;9.796;2023-09-08T07:46:53;6.27;;;5.67;;
75818;SDS011;64453;51.944;9.796;2023-09-08T07:49:21;7.10;;;6.17;;
75818;SDS011;64453;51.944;9.796;2023-09-08T07:51:48;6.33;;;5.83;;
75818;SDS011;64453;51.944;9.796;2023-09-08T07:54:15;7.03;;;6.50;;
75818;SDS011;64453;51.944;9.796;2023-09-08T07:56:42;7.50;;;6.63;;
75818;SDS011;64453;51.944;9.796;2023-09-08T07:59:09;6.50;;;5.80;;
75818;SDS011;64453;51.944;9.796;2023-09-08T08:01:37;8.13;;;6.20;;
75818;SDS011;64453;51.944;9.796;2023-09-08T08:04:04;6.50;;;5.93;;
75818;SDS011;64453;51.944;9.796;2023-09-08T08:06:31;7.10;;;6.43;;
75818;SDS011;64453;51.944;9.796;2023-09-08T08:08:58;8.63;;;6.03;;
75818;SDS011;64453;51.944;9.796;2023-09-08T08:11:26;7.03;;;6.53;;
75818;SDS011;64453;51.944;9.796;2023-09-08T08:13:53;9.70;;;6.30;;
75818;SDS011;64453;51.944;9.796;2023-09-08T08:16:21;6.60;;;6.07;;
75818;SDS011;64453;51.944;9.796;2023-09-08T08:18:50;6.33;;;5.83;;
75818;SDS011;64453;51.944;9.796;2023-09-08T08:21:17;6.20;;;5.60;;
75818;SDS011;64453;51.944;9.796;2023-09-08T08:23:44;6.07;;;5.57;;
75818;SDS011;64453;51.944;9.796;2023-09-08T08:26:11;7.67;;;5.83;;
75818;SDS011;64453;51.944;9.796;2023-09-08T08:28:38;6.70;;;6.10;;
75818;SDS011;64453;51.944;9.796;2023-09-08T08:31:05;6.73;;;5.40;;
75818;SDS011;64453;51.944;9.796;2023-09-08T08:33:32;8.50;;;5.53;;
75818;SDS011;64453;51.944;9.796;2023-09-08T08:36:00;6.23;;;5.53;;
75818;SDS011;64453;51.944;9.796;2023-09-08T08:38:28;7.37;;;5.57;;
75818;SDS011;64453;51.944;9.796;2023-09-08T08:40:57;5.93;;;5.43;;
75818;SDS011;64453;51.944;9.796;2023-09-08T08:43:29;6.53;;;5.53;;
75818;SDS011;64453;51.944;9.796;2023-09-08T08:45:58;5.50;;;5.00;;
75818;SDS011;64453;51.944;9.796;2023-09-08T08:48:26;6.20;;;5.57;;
75818;SDS011;64453;51.944;9.796;2023-09-08T08:50:56;6.50;;;5.90;;
75818;SDS011;64453;51.944;9.796;2023-09-08T08:53:25;7.70;;;5.23;;
75818;SDS011;64453;51.944;9.796;2023-09-08T08:55:53;5.37;;;4.97;;
75818;SDS011;64453;51.944;9.796;2023-09-08T08:58:24;5.50;;;5.10;;
75818;SDS011;64453;51.944;9.796;2023-09-08T09:00:52;8.33;;;5.33;;
75818;SDS011;64453;51.944;9.796;2023-09-08T09:03:22;5.40;;;4.93;;
75818;SDS011;64453;51.944;9.796;2023-09-08T09:05:51;5.60;;;5.00;;
75818;SDS011;64453;51.944;9.796;2023-09-08T09:08:18;5.40;;;4.93;;
75818;SDS011;64453;51.944;9.796;2023-09-08T09:10:48;5.30;;;4.90;;
75818;SDS011;64453;51.944;9.796;2023-09-08T09:13:16;5.53;;;5.00;;
75818;SDS011;64453;51.944;9.796;2023-09-08T09:15:43;5.43;;;5.03;;
75818;SDS011;64453;51.944;9.796;2023-09-08T09:18:11;5.73;;;5.00;;
75818;SDS011;64453;51.944;9.796;2023-09-08T09:20:38;5.43;;;4.93;;
75818;SDS011;64453;51.944;9.796;2023-09-08T09:23:06;9.93;;;4.90;;
75818;SDS011;64453;51.944;9.796;2023-09-08T09:25:34;6.83;;;4.37;;
75818;SDS011;64453;51.944;9.796;2023-09-08T09:28:04;4.87;;;4.57;;
75818;SDS011;64453;51.944;9.796;2023-09-08T09:30:45;5.47;;;4.73;;
75818;SDS011;64453;51.944;9.796;2023-09-08T09:33:14;5.60;;;5.20;;
75818;SDS011;64453;51.944;9.796;2023-09-08T09:35:41;7.40;;;4.60;;
75818;SDS011;64453;51.944;9.796;2023-09-08T09:38:09;5.27;;;4.80;;
75818;SDS011;64453;51.944;9.796;2023-09-08T09:40:37;6.67;;;5.13;;
75818;SDS011;64453;51.944;9.796;2023-09-08T09:43:06;8.77;;;4.53;;
75818;SDS011;64453;51.944;9.796;2023-09-08T09:45:34;5.43;;;4.93;;
75818;SDS011;64453;51.944;9.796;2023-09-08T09:48:03;5.33;;;4.70;;
75818;SDS011;64453;51.944;9.796;2023-09-08T09:50:33;4.57;;;4.23;;
75818;SDS011;64453;51.944;9.796;2023-09-08T09:53:01;5.37;;;4.87;;
75818;SDS011;64453;51.944;9.796;2023-09-08T09:55:34;4.50;;;4.20;;
75818;SDS011;64453;51.944;9.796;2023-09-08T09:58:05;6.53;;;4.07;;
75818;SDS011;64453;51.944;9.796;2023-09-08T10:00:33;4.20;;;3.90;;
75818;SDS011;64453;51.944;9.796;2023-09-08T10:03:02;4.97;;;3.93;;
75818;SDS011;64453;51.944;9.796;2023-09-08T10:05:30;4.67;;;4.27;;
75818;SDS011;64453;51.944;9.796;2023-09-08T10:07:58;4.70;;;4.30;;
75818;SDS011;64453;51.944;9.796;2023-09-08T10:10:26;5.00;;;4.63;;
75818;SDS011;64453;51.944;9.796;2023-09-08T10:12:54;5.70;;;4.47;;
75818;SDS011;64453;51.944;9.796;2023-09-08T10:15:28;4.55;;;4.15;;
75818;SDS011;64453;51.944;9.796;2023-09-08T10:17:57;4.38;;;3.90;;
75818;SDS011;64453;51.944;9.796;2023-09-08T10:20:30;4.80;;;4.40;;
75818;SDS011;64453;51.944;9.796;2023-09-08T10:23:01;6.97;;;3.83;;
75818;SDS011;64453;51.944;9.796;2023-09-08T10:25:34;4.22;;;3.92;;
75818;SDS011;64453;51.944;9.796;2023-09-08T10:28:12;3.92;;;3.65;;
75818;SDS011;64453;51.944;9.796;2023-09-08T10:30:40;4.50;;;4.10;;
75818;SDS011;64453;51.944;9.796;2023-09-08T10:33:08;4.15;;;3.85;;
75818;SDS011;64453;51.944;9.796;2023-09-08T10:35:36;4.03;;;3.83;;
75818;SDS011;64453;51.944;9.796;2023-09-08T10:38:21;4.25;;;3.95;;
75818;SDS011;64453;51.944;9.796;2023-09-08T10:40:50;4.65;;;4.25;;
75818;SDS011;64453;51.944;9.796;2023-09-08T10:43:17;5.50;;;4.80;;
75818;SDS011;64453;51.944;9.796;2023-09-08T10:45:46;4.70;;;3.72;;
75818;SDS011;64453;51.944;9.796;2023-09-08T10:48:14;4.32;;;4.03;;
75818;SDS011;64453;51.944;9.796;2023-09-08T10:50:41;5.30;;;3.83;;
75818;SDS011;64453;51.944;9.796;2023-09-08T10:53:13;4.38;;;4.07;;
75818;SDS011;64453;51.944;9.796;2023-09-08T10:55:42;3.85;;;3.65;;
75818;SDS011;64453;51.944;9.796;2023-09-08T10:58:18;3.90;;;3.63;;
75818;SDS011;64453;51.944;9.796;2023-09-08T11:00:50;3.88;;;3.67;;
75818;SDS011;64453;51.944;9.796;2023-09-08T11:03:25;3.80;;;3.60;;
75818;SDS011;64453;51.944;9.796;2023-09-08T11:05:54;4.43;;;3.67;;
75818;SDS011;64453;51.944;9.796;2023-09-08T11:08:22;5.05;;;3.92;;
75818;SDS011;64453;51.944;9.796;2023-09-08T11:10:50;3.97;;;3.67;;
75818;SDS011;64453;51.944;9.796;2023-09-08T11:13:17;3.88;;;3.40;;
75818;SDS011;64453;51.944;9.796;2023-09-08T11:15:44;5.40;;;4.13;;
75818;SDS011;64453;51.944;9.796;2023-09-08T11:18:12;3.95;;;3.75;;
75818;SDS011;64453;51.944;9.796;2023-09-08T11:20:39;4.88;;;4.03;;
75818;SDS011;64453;51.944;9.796;2023-09-08T11:23:06;4.18;;;3.88;;
75818;SDS011;64453;51.944;9.796;2023-09-08T11:25:33;3.20;;;3.00;;
75818;SDS011;64453;51.944;9.796;2023-09-08T11:28:00;4.57;;;3.80;;
75818;SDS011;64453;51.944;9.796;2023-09-08T11:30:28;3.75;;;3.45;;
75818;SDS011;64453;51.944;9.796;2023-09-08T11:32:55;4.10;;;3.90;;
75818;SDS011;64453;51.944;9.796;2023-09-08T11:35:27;3.88;;;3.58;;
75818;SDS011;64453;51.944;9.796;2023-09-08T11:37:58;4.63;;;4.22;;
75818;SDS011;64453;51.944;9.796;2023-09-08T11:40:30;5.05;;;4.35;;
75818;SDS011;64453;51.944;9.796;2023-09-08T11:42:57;4.30;;;4.00;;
75818;SDS011;64453;51.944;9.796;2023-09-08T11:45:24;4.47;;;4.18;;
75818;SDS011;64453;51.944;9.796;2023-09-08T11:47:53;3.90;;;3.65;;
75818;SDS011;64453;51.944;9.796;2023-09-08T11:50:21;3.90;;;3.60;;
75818;SDS011;64453;51.944;9.796;2023-09-08T11:52:50;3.67;;;3.47;;
75818;SDS011;64453;51.944;9.796;2023-09-08T11:55:20;4.13;;;3.60;;
75818;SDS011;64453;51.944;9.796;2023-09-08T11:57:49;4.25;;;3.80;;
75818;SDS011;64453;51.944;9.796;2023-09-08T12:00:22;3.65;;;3.35;;
75818;SDS011;64453;51.944;9.796;2023-09-08T12:02:51;3.30;;;3.10;;
75818;SDS011;64453;51.944;9.796;2023-09-08T12:05:21;3.97;;;3.60;;
75818;SDS011;64453;51.944;9.796;2023-09-08T12:07:53;3.65;;;3.35;;
75818;SDS011;64453;51.944;9.796;2023-09-08T12:10:22;3.60;;;3.30;;
75818;SDS011;64453;51.944;9.796;2023-09-08T12:12:50;4.57;;;3.65;;
75818;SDS011;64453;51.944;9.796;2023-09-08T12:15:29;3.70;;;3.35;;
75818;SDS011;64453;51.944;9.796;2023-09-08T12:17:58;3.30;;;3.00;;
75818;SDS011;64453;51.944;9.796;2023-09-08T12:20:25;4.97;;;3.13;;
75818;SDS011;64453;51.944;9.796;2023-09-08T12:22:54;3.35;;;3.05;;
75818;SDS011;64453;51.944;9.796;2023-09-08T12:25:24;3.10;;;2.78;;
75818;SDS011;64453;51.944;9.796;2023-09-08T12:27:53;3.55;;;3.22;;
75818;SDS011;64453;51.944;9.796;2023-09-08T12:30:21;3.28;;;3.08;;
75818;SDS011;64453;51.944;9.796;2023-09-08T12:32:55;3.40;;;3.17;;
75818;SDS011;64453;51.944;9.796;2023-09-08T12:35:23;3.55;;;3.35;;
75818;SDS011;64453;51.944;9.796;2023-09-08T12:37:57;3.05;;;2.65;;
75818;SDS011;64453;51.944;9.796;2023-09-08T12:40:26;3.20;;;3.00;;
75818;SDS011;64453;51.944;9.796;2023-09-08T12:42:53;3.35;;;3.15;;
75818;SDS011;64453;51.944;9.796;2023-09-08T12:45:21;3.42;;;3.17;;
75818;SDS011;64453;51.944;9.796;2023-09-08T12:47:48;3.38;;;3.17;;
75818;SDS011;64453;51.944;9.796;2023-09-08T12:50:16;2.95;;;2.75;;
75818;SDS011;64453;51.944;9.796;2023-09-08T12:52:42;2.80;;;2.60;;
75818;SDS011;64453;51.944;9.796;2023-09-08T12:55:11;2.90;;;2.70;;
75818;SDS011;64453;51.944;9.796;2023-09-08T12:57:38;2.88;;;2.67;;
75818;SDS011;64453;51.944;9.796;2023-09-08T13:00:06;3.10;;;2.90;;
75818;SDS011;64453;51.944;9.796;2023-09-08T13:02:34;3.08;;;2.88;;
75818;SDS011;64453;51.944;9.796;2023-09-08T13:05:01;3.03;;;2.88;;
75818;SDS011;64453;51.944;9.796;2023-09-08T13:07:28;3.30;;;3.03;;
75818;SDS011;64453;51.944;9.796;2023-09-08T13:09:55;3.05;;;2.88;;
75818;SDS011;64453;51.944;9.796;2023-09-08T13:12:23;3.00;;;2.80;;
75818;SDS011;64453;51.944;9.796;2023-09-08T13:14:50;3.45;;;2.90;;
75818;SDS011;64453;51.944;9.796;2023-09-08T13:17:18;3.17;;;2.88;;
75818;SDS011;64453;51.944;9.796;2023-09-08T13:19:45;2.78;;;2.67;;
75818;SDS011;64453;51.944;9.796;2023-09-08T13:22:13;3.38;;;3.17;;
75818;SDS011;64453;51.944;9.796;2023-09-08T13:24:40;2.60;;;2.50;;
75818;SDS011;64453;51.944;9.796;2023-09-08T13:27:07;2.92;;;2.58;;
75818;SDS011;64453;51.944;9.796;2023-09-08T13:29:35;3.17;;;2.97;;
75818;SDS011;64453;51.944;9.796;2023-09-08T13:32:03;2.47;;;2.38;;
75818;SDS011;64453;51.944;9.796;2023-09-08T13:34:30;3.17;;;2.95;;
75818;SDS011;64453;51.944;9.796;2023-09-08T13:36:59;3.58;;;3.28;;
75818;SDS011;64453;51.944;9.796;2023-09-08T13:39:27;3.15;;;2.95;;
75818;SDS011;64453;51.944;9.796;2023-09-08T13:41:54;6.90;;;3.40;;
75818;SDS011;64453;51.944;9.796;2023-09-08T13:44:26;3.05;;;2.83;;
75818;SDS011;64453;51.944;9.796;2023-09-08T13:46:54;4.15;;;2.88;;
75818;SDS011;64453;51.944;9.796;2023-09-08T13:49:22;3.15;;;2.95;;
75818;SDS011;64453;51.944;9.796;2023-09-08T13:51:49;3.08;;;2.88;;
75818;SDS011;64453;51.944;9.796;2023-09-08T13:54:18;2.92;;;2.83;;
75818;SDS011;64453;51.944;9.796;2023-09-08T13:56:45;3.10;;;2.90;;
75818;SDS011;64453;51.944;9.796;2023-09-08T13:59:26;3.05;;;2.85;;
75818;SDS011;64453;51.944;9.796;2023-09-08T14:01:56;3.38;;;3.17;;
75818;SDS011;64453;51.944;9.796;2023-09-08T14:04:24;3.53;;;3.22;;
75818;SDS011;64453;51.944;9.796;2023-09-08T14:06:51;3.30;;;3.03;;
75818;SDS011;64453;51.944;9.796;2023-09-08T14:09:18;3.72;;;3.08;;
75818;SDS011;64453;51.944;9.796;2023-09-08T14:11:45;2.90;;;2.70;;
75818;SDS011;64453;51.944;9.796;2023-09-08T14:14:12;3.10;;;2.90;;
75818;SDS011;64453;51.944;9.796;2023-09-08T14:16:39;3.13;;;2.85;;
75818;SDS011;64453;51.944;9.796;2023-09-08T14:19:07;3.42;;;3.22;;
75818;SDS011;64453;51.944;9.796;2023-09-08T14:21:34;2.72;;;2.53;;
75818;SDS011;64453;51.944;9.796;2023-09-08T14:24:02;3.03;;;2.83;;
75818;SDS011;64453;51.944;9.796;2023-09-08T14:26:30;4.05;;;2.88;;
75818;SDS011;64453;51.944;9.796;2023-09-08T14:28:57;3.28;;;3.08;;
75818;SDS011;64453;51.944;9.796;2023-09-08T14:31:23;3.05;;;2.85;;
75818;SDS011;64453;51.944;9.796;2023-09-08T14:33:50;3.10;;;2.90;;
75818;SDS011;64453;51.944;9.796;2023-09-08T14:36:19;2.80;;;2.60;;
75818;SDS011;64453;51.944;9.796;2023-09-08T14:38:46;3.15;;;2.95;;
75818;SDS011;64453;51.944;9.796;2023-09-08T14:41:13;3.00;;;2.90;;
75818;SDS011;64453;51.944;9.796;2023-09-08T14:43:40;3.35;;;3.10;;
75818;SDS011;64453;51.944;9.796;2023-09-08T14:46:07;3.05;;;2.85;;
75818;SDS011;64453;51.944;9.796;2023-09-08T14:48:34;2.63;;;2.53;;
75818;SDS011;64453;51.944;9.796;2023-09-08T14:51:01;2.80;;;2.70;;
75818;SDS011;64453;51.944;9.796;2023-09-08T14:53:31;3.80;;;2.97;;
75818;SDS011;64453;51.944;9.796;2023-09-08T14:55:58;2.72;;;2.58;;